Time;durP1;ratioP1;P1;durP2;ratioP2;P2;SDS_P1;SDS_P2;PMS_P1;PMS_P2;Temp;Humidity;BMP_temperature;BMP_pressure;BME280_temperature;BME280_humidity;BME280_pressure;Samples;Min_cycle;Max_cycle;Signal;HPM_P1;HPM_P2
2023/10/26 00:01:50;;;;;;;10.98;9.93;;;14.60;99.90;;;;;;5021359;28;20465;-74
2023/10/26 00:04:20;;;;;;;19.52;18.00;;;14.60;99.90;;;;;;5022393;28;20045;-74
2023/10/26 00:06:48;;;;;;;13.25;10.45;;;14.60;99.90;;;;;;5021570;28;20057;-77
2023/10/26 00:09:17;;;;;;;10.70;8.65;;;14.60;99.90;;;;;;5025836;28;20144;-75
2023/10/26 00:11:45;;;;;;;15.73;14.32;;;14.60;99.90;;;;;;5039819;28;20791;-72
2023/10/26 00:14:14;;;;;;;15.13;9.43;;;14.60;99.90;;;;;;5030193;28;20506;-76
2023/10/26 00:16:43;;;;;;;11.95;10.93;;;14.60;99.90;;;;;;5020861;28;20049;-74
2023/10/26 00:19:14;;;;;;;12.38;11.18;;;14.50;99.90;;;;;;5011088;28;20060;-73
2023/10/26 00:21:44;;;;;;;12.38;11.10;;;14.60;99.90;;;;;;5025481;28;20054;-74
2023/10/26 00:24:13;;;;;;;13.15;11.02;;;14.50;99.90;;;;;;5014120;28;20158;-73
2023/10/26 00:26:41;;;;;;;11.43;10.27;;;14.50;99.90;;;;;;5039426;28;20037;-74
2023/10/26 00:29:10;;;;;;;26.05;23.55;;;14.40;99.90;;;;;;5022938;28;20526;-75
2023/10/26 00:31:38;;;;;;;17.52;16.23;;;14.50;99.90;;;;;;5020586;28;20512;-77
2023/10/26 00:34:07;;;;;;;13.32;12.05;;;14.40;99.90;;;;;;5012893;28;20045;-76
2023/10/26 00:36:35;;;;;;;12.98;11.88;;;14.40;99.90;;;;;;5007396;28;20554;-74
2023/10/26 00:39:05;;;;;;;19.08;17.15;;;14.40;99.90;;;;;;5021413;28;20045;-75
2023/10/26 00:41:34;;;;;;;14.23;12.15;;;14.40;99.90;;;;;;5036475;28;20049;-74
2023/10/26 00:44:02;;;;;;;15.50;14.02;;;14.30;99.90;;;;;;5010370;28;20234;-75
2023/10/26 00:46:31;;;;;;;15.88;13.40;;;14.30;99.90;;;;;;5024398;28;20149;-76
2023/10/26 00:49:00;;;;;;;21.50;19.92;;;14.30;99.90;;;;;;5026556;28;20144;-75
2023/10/26 00:51:29;;;;;;;20.08;17.92;;;14.30;99.90;;;;;;5013307;28;20068;-73
2023/10/26 00:53:58;;;;;;;19.65;17.98;;;14.20;99.90;;;;;;5023130;28;20393;-77
2023/10/26 00:56:28;;;;;;;19.08;17.33;;;14.20;99.90;;;;;;5030004;28;20386;-76
2023/10/26 00:58:58;;;;;;;18.80;17.15;;;14.20;99.90;;;;;;5014365;28;20060;-82
2023/10/26 01:01:28;;;;;;;24.88;22.83;;;14.10;99.90;;;;;;5029566;28;20192;-74
2023/10/26 01:03:57;;;;;;;18.10;16.42;;;14.10;99.90;;;;;;5014775;28;20094;-74
2023/10/26 01:06:25;;;;;;;12.98;10.88;;;14.10;99.90;;;;;;5027212;28;20155;-78
2023/10/26 01:08:54;;;;;;;19.20;17.60;;;14.10;99.90;;;;;;5028070;28;20057;-74
2023/10/26 01:11:23;;;;;;;19.23;14.30;;;14.00;99.90;;;;;;5025423;28;20073;-77
2023/10/26 01:13:53;;;;;;;15.93;14.63;;;14.10;99.90;;;;;;5015178;28;20064;-78
2023/10/26 01:16:22;;;;;;;11.43;10.23;;;14.10;99.90;;;;;;5028328;28;20057;-79
2023/10/26 01:18:51;;;;;;;21.90;19.98;;;14.00;99.90;;;;;;5009588;28;20062;-74
2023/10/26 01:21:19;;;;;;;15.45;13.85;;;14.00;99.90;;;;;;5046276;28;20148;-74
2023/10/26 01:23:49;;;;;;;18.13;16.70;;;14.00;99.90;;;;;;5023675;28;20061;-79
2023/10/26 01:26:18;;;;;;;15.10;13.50;;;13.90;99.90;;;;;;5006103;28;20868;-73
2023/10/26 01:28:46;;;;;;;16.17;14.52;;;13.90;99.90;;;;;;5009732;28;20629;-74
2023/10/26 01:31:17;;;;;;;17.15;15.25;;;13.90;99.90;;;;;;5026722;28;20053;-75
2023/10/26 01:33:45;;;;;;;16.45;14.98;;;13.90;99.90;;;;;;5022900;28;20057;-76
2023/10/26 01:36:14;;;;;;;18.00;16.15;;;13.80;99.90;;;;;;5020865;28;20072;-79
2023/10/26 01:38:42;;;;;;;21.65;16.92;;;13.80;99.90;;;;;;5007675;28;20167;-73
2023/10/26 01:41:12;;;;;;;18.95;17.00;;;13.80;99.90;;;;;;5014800;28;20411;-74
2023/10/26 01:43:41;;;;;;;21.23;18.88;;;13.80;99.90;;;;;;5031919;28;20064;-82
2023/10/26 01:46:09;;;;;;;22.63;20.70;;;13.80;99.90;;;;;;5028959;28;20049;-80
2023/10/26 01:48:38;;;;;;;21.35;19.33;;;13.80;99.90;;;;;;5023795;28;20063;-79
2023/10/26 01:51:07;;;;;;;21.00;18.92;;;13.80;99.90;;;;;;5028805;28;20095;-74
2023/10/26 01:53:35;;;;;;;20.33;18.25;;;13.80;99.90;;;;;;5011607;28;20057;-73
2023/10/26 01:56:05;;;;;;;19.50;17.75;;;13.70;99.90;;;;;;5020036;28;20504;-75
2023/10/26 01:58:35;;;;;;;15.15;13.55;;;13.80;99.90;;;;;;5008432;28;20045;-72
2023/10/26 02:01:03;;;;;;;14.30;12.93;;;13.80;99.90;;;;;;5022194;28;20130;-75
2023/10/26 02:03:32;;;;;;;16.20;14.65;;;13.80;99.90;;;;;;5009167;28;20057;-73
2023/10/26 02:06:00;;;;;;;16.88;15.32;;;13.80;99.90;;;;;;5021930;28;20060;-73
2023/10/26 02:08:29;;;;;;;16.77;15.07;;;13.80;99.90;;;;;;5026087;28;20054;-74
2023/10/26 02:10:58;;;;;;;22.48;20.55;;;13.70;99.90;;;;;;5035269;28;20064;-76
2023/10/26 02:13:27;;;;;;;18.48;16.27;;;13.70;99.90;;;;;;5019766;28;20057;-73
2023/10/26 02:15:57;;;;;;;20.67;18.35;;;13.70;99.90;;;;;;5027191;28;20056;-76
2023/10/26 02:18:26;;;;;;;20.50;18.75;;;13.70;99.90;;;;;;5025664;28;20184;-73
2023/10/26 02:20:54;;;;;;;21.38;19.13;;;13.60;99.90;;;;;;5027404;28;20396;-74
2023/10/26 02:23:23;;;;;;;19.30;14.98;;;13.60;99.90;;;;;;5024700;28;20064;-73
2023/10/26 02:25:51;;;;;;;17.88;16.08;;;13.60;99.90;;;;;;5027053;28;20053;-81
2023/10/26 02:28:20;;;;;;;19.02;17.58;;;13.60;99.90;;;;;;5021668;28;20059;-73
2023/10/26 02:30:48;;;;;;;16.80;13.90;;;13.60;99.90;;;;;;5022106;28;20056;-79
2023/10/26 02:33:20;;;;;;;15.23;13.77;;;13.50;99.90;;;;;;5032618;28;20067;-73
2023/10/26 02:35:49;;;;;;;16.38;12.98;;;13.60;99.90;;;;;;5016466;28;20084;-79
2023/10/26 02:38:18;;;;;;;18.08;15.13;;;13.60;99.90;;;;;;5020018;28;21292;-74
2023/10/26 02:40:46;;;;;;;26.65;24.45;;;13.60;99.90;;;;;;5013134;28;20056;-79
2023/10/26 02:43:16;;;;;;;18.65;16.90;;;13.60;99.90;;;;;;5028684;28;20052;-74
2023/10/26 02:45:44;;;;;;;19.13;17.17;;;13.60;99.90;;;;;;5022763;28;20051;-73
2023/10/26 02:48:13;;;;;;;20.92;18.98;;;13.60;99.90;;;;;;4999267;28;20191;-73
2023/10/26 02:50:43;;;;;;;17.40;15.23;;;13.60;99.90;;;;;;5017946;28;20199;-72
2023/10/26 02:53:11;;;;;;;26.75;19.80;;;13.50;99.90;;;;;;5017643;28;20069;-72
2023/10/26 02:55:40;;;;;;;21.85;19.73;;;13.60;99.90;;;;;;5008749;28;20084;-74
2023/10/26 02:58:10;;;;;;;18.67;16.80;;;13.50;99.90;;;;;;5018890;28;20100;-73
2023/10/26 03:00:38;;;;;;;17.42;15.93;;;13.50;99.90;;;;;;5013889;28;20646;-72
2023/10/26 03:03:07;;;;;;;19.75;17.90;;;13.50;99.90;;;;;;5023037;28;20045;-74
2023/10/26 03:05:38;;;;;;;14.20;13.05;;;13.50;99.90;;;;;;5035109;28;20107;-73
2023/10/26 03:08:08;;;;;;;40.67;27.23;;;13.50;99.90;;;;;;5018222;28;20045;-73
2023/10/26 03:10:37;;;;;;;22.48;16.63;;;13.40;99.90;;;;;;5023385;28;20061;-72
2023/10/26 03:13:05;;;;;;;18.55;16.67;;;13.40;99.90;;;;;;5022748;28;20052;-72
2023/10/26 03:15:34;;;;;;;24.42;21.98;;;13.40;99.90;;;;;;5020498;28;20064;-72
2023/10/26 03:18:02;;;;;;;22.45;20.63;;;13.40;99.90;;;;;;5006915;28;20036;-72
2023/10/26 03:20:33;;;;;;;20.25;18.20;;;13.40;99.90;;;;;;5019715;28;20115;-72
2023/10/26 03:23:02;;;;;;;18.15;16.75;;;13.40;99.90;;;;;;4999632;28;20057;-72
2023/10/26 03:25:32;;;;;;;19.90;18.25;;;13.40;99.90;;;;;;5034058;28;20511;-72
2023/10/26 03:28:00;;;;;;;19.30;17.83;;;13.30;99.90;;;;;;5022193;28;20110;-73
2023/10/26 03:30:28;;;;;;;16.02;14.50;;;13.30;99.90;;;;;;5015969;28;20731;-73
2023/10/26 03:32:57;;;;;;;18.10;16.42;;;13.30;99.90;;;;;;5012455;28;20057;-75
2023/10/26 03:35:26;;;;;;;17.23;15.50;;;13.30;99.90;;;;;;5020385;28;20684;-72
2023/10/26 03:37:54;;;;;;;18.60;17.15;;;13.30;99.90;;;;;;5014585;28;20056;-72
2023/10/26 03:40:22;;;;;;;18.80;17.05;;;13.20;99.90;;;;;;5021496;28;20715;-72
2023/10/26 03:42:52;;;;;;;17.45;15.63;;;13.20;99.90;;;;;;5003967;28;20049;-75
2023/10/26 03:45:21;;;;;;;21.27;19.42;;;13.20;99.90;;;;;;5003071;28;20064;-75
2023/10/26 03:47:49;;;;;;;23.17;20.98;;;13.20;99.90;;;;;;5023981;28;20053;-75
2023/10/26 03:50:18;;;;;;;24.08;22.02;;;13.20;99.90;;;;;;5017658;28;20037;-77
2023/10/26 03:52:46;;;;;;;21.25;19.27;;;13.10;99.90;;;;;;5028981;28;20046;-77
2023/10/26 03:55:15;;;;;;;20.42;18.65;;;13.20;99.90;;;;;;5008312;28;20045;-75
2023/10/26 03:57:46;;;;;;;19.00;15.07;;;13.20;99.90;;;;;;5005790;28;20053;-76
2023/10/26 04:00:17;;;;;;;17.25;15.80;;;13.20;99.90;;;;;;5019890;28;22049;-75
2023/10/26 04:02:45;;;;;;;21.25;19.55;;;13.20;99.90;;;;;;5015732;28;20483;-75
2023/10/26 04:05:15;;;;;;;19.30;17.85;;;13.10;99.90;;;;;;5003779;28;20060;-75
2023/10/26 04:07:44;;;;;;;18.80;16.95;;;13.10;99.90;;;;;;4999515;28;20051;-75
2023/10/26 04:10:12;;;;;;;20.65;18.42;;;13.10;99.90;;;;;;4998519;28;20720;-75
2023/10/26 04:12:41;;;;;;;21.08;18.85;;;13.10;99.90;;;;;;5020785;28;20061;-76
2023/10/26 04:15:10;;;;;;;22.77;20.92;;;13.10;99.90;;;;;;5016812;28;20041;-76
2023/10/26 04:17:39;;;;;;;15.90;14.27;;;13.00;99.90;;;;;;5004368;28;20049;-76
2023/10/26 04:20:10;;;;;;;20.65;18.50;;;13.00;99.90;;;;;;5006325;28;20994;-76
2023/10/26 04:22:38;;;;;;;22.80;20.50;;;13.00;99.90;;;;;;5023100;28;20129;-76
2023/10/26 04:25:07;;;;;;;18.17;16.02;;;13.00;99.90;;;;;;5020292;28;20052;-75
2023/10/26 04:27:36;;;;;;;17.48;15.68;;;13.00;99.90;;;;;;5021428;28;20546;-77
2023/10/26 04:30:06;;;;;;;22.00;19.48;;;13.00;99.90;;;;;;5013978;28;20075;-75
2023/10/26 04:32:35;;;;;;;19.00;17.30;;;13.00;99.90;;;;;;5004337;28;20679;-77
2023/10/26 04:35:05;;;;;;;21.63;17.20;;;13.00;99.90;;;;;;5006953;28;20049;-75
2023/10/26 04:37:34;;;;;;;23.40;20.17;;;13.00;99.90;;;;;;5020733;28;20048;-74
2023/10/26 04:40:03;;;;;;;18.50;16.90;;;13.00;99.90;;;;;;5017087;28;20038;-75
2023/10/26 04:42:31;;;;;;;27.42;18.80;;;13.00;99.90;;;;;;5003920;28;20127;-75
2023/10/26 04:45:00;;;;;;;26.05;20.42;;;13.00;99.90;;;;;;5032700;28;22631;-75
2023/10/26 04:47:28;;;;;;;22.30;17.73;;;13.00;99.90;;;;;;5003873;28;20056;-75
2023/10/26 04:49:57;;;;;;;16.83;15.35;;;13.00;99.90;;;;;;5016800;28;20104;-75
2023/10/26 04:52:27;;;;;;;24.27;20.15;;;12.90;99.90;;;;;;5015155;28;20115;-75
2023/10/26 04:54:55;;;;;;;21.42;19.17;;;13.00;99.90;;;;;;5018522;28;20146;-75
2023/10/26 04:57:24;;;;;;;25.95;23.80;;;12.90;99.90;;;;;;5010450;28;20515;-76
2023/10/26 04:59:52;;;;;;;23.52;21.73;;;12.90;99.90;;;;;;5000188;28;20049;-75
2023/10/26 05:02:20;;;;;;;23.00;21.02;;;12.90;99.90;;;;;;5035419;28;21112;-76
2023/10/26 05:04:49;;;;;;;22.92;20.88;;;12.90;99.90;;;;;;5003170;28;20503;-76
2023/10/26 05:07:17;;;;;;;21.50;19.63;;;12.90;99.90;;;;;;5021707;28;20049;-76
2023/10/26 05:09:48;;;;;;;24.08;19.05;;;12.90;99.90;;;;;;5006116;28;20041;-76
2023/10/26 05:12:17;;;;;;;20.38;18.35;;;12.80;99.90;;;;;;5004901;28;20319;-77
2023/10/26 05:14:46;;;;;;;16.08;14.88;;;12.80;99.90;;;;;;5006030;28;20097;-78
2023/10/26 05:17:14;;;;;;;15.85;14.15;;;12.90;99.90;;;;;;5007231;28;20186;-77
2023/10/26 05:19:42;;;;;;;19.13;17.27;;;12.90;99.90;;;;;;5006334;28;20045;-76
2023/10/26 05:22:11;;;;;;;17.08;15.30;;;12.90;99.90;;;;;;5003941;28;22500;-76
2023/10/26 05:24:42;;;;;;;20.15;18.25;;;12.90;99.90;;;;;;5017234;28;20057;-76
2023/10/26 05:27:12;;;;;;;17.58;15.85;;;13.00;99.90;;;;;;5014373;28;20089;-76
2023/10/26 05:29:41;;;;;;;20.33;18.27;;;13.00;99.90;;;;;;5004433;28;20796;-76
2023/10/26 05:32:09;;;;;;;23.00;20.98;;;13.00;99.90;;;;;;5017857;28;22553;-77
2023/10/26 05:34:38;;;;;;;21.70;19.85;;;13.10;99.90;;;;;;5003798;28;20044;-78
2023/10/26 05:37:06;;;;;;;22.05;20.15;;;13.00;99.90;;;;;;5021209;28;20038;-77
2023/10/26 05:39:37;;;;;;;20.60;18.50;;;13.10;99.90;;;;;;5006510;28;20041;-75
2023/10/26 05:42:06;;;;;;;22.90;20.52;;;13.10;99.90;;;;;;5037402;28;20041;-75
2023/10/26 05:44:36;;;;;;;17.60;15.85;;;13.10;99.90;;;;;;5005767;28;20049;-75
2023/10/26 05:47:04;;;;;;;25.95;23.98;;;13.10;99.90;;;;;;5018741;28;22681;-77
2023/10/26 05:49:35;;;;;;;20.67;18.88;;;13.10;99.90;;;;;;5016750;28;20054;-76
2023/10/26 05:52:04;;;;;;;28.88;22.08;;;13.20;99.90;;;;;;5002749;28;22498;-76
2023/10/26 05:54:32;;;;;;;21.67;19.58;;;13.20;99.90;;;;;;5017557;28;20057;-78
2023/10/26 05:57:01;;;;;;;22.23;20.40;;;13.20;99.90;;;;;;5021040;28;20616;-76
2023/10/26 05:59:29;;;;;;;23.63;16.10;;;13.20;99.90;;;;;;4998786;28;20048;-76
2023/10/26 06:01:59;;;;;;;23.27;21.25;;;13.20;99.90;;;;;;5000102;28;20141;-77
2023/10/26 06:04:28;;;;;;;16.48;12.73;;;13.20;99.90;;;;;;5024781;28;20064;-75
2023/10/26 06:06:56;;;;;;;19.90;18.15;;;13.30;99.90;;;;;;5010738;28;20044;-76
2023/10/26 06:09:25;;;;;;;21.17;19.05;;;13.30;99.90;;;;;;5007841;28;20060;-75
2023/10/26 06:11:53;;;;;;;20.02;17.38;;;13.30;99.90;;;;;;5000799;28;22125;-75
2023/10/26 06:14:22;;;;;;;17.23;15.80;;;13.40;99.90;;;;;;5030615;28;20620;-76
2023/10/26 06:16:50;;;;;;;22.05;18.33;;;13.40;99.90;;;;;;5014435;28;20508;-76
2023/10/26 06:19:20;;;;;;;20.45;17.00;;;13.40;99.90;;;;;;5005882;28;20450;-75
2023/10/26 06:21:48;;;;;;;18.35;16.40;;;13.40;99.90;;;;;;5008993;28;20187;-73
2023/10/26 06:24:17;;;;;;;18.30;16.65;;;13.40;99.90;;;;;;4988356;28;20508;-73
2023/10/26 06:26:46;;;;;;;18.20;14.27;;;13.50;99.90;;;;;;5038514;28;20420;-72
2023/10/26 06:29:15;;;;;;;18.17;15.43;;;13.50;99.90;;;;;;5024607;28;20068;-73
2023/10/26 06:31:43;;;;;;;17.88;16.05;;;13.60;99.90;;;;;;5003676;28;20041;-72
2023/10/26 06:34:12;;;;;;;18.35;14.70;;;13.60;99.90;;;;;;5027695;28;20056;-73
2023/10/26 06:36:42;;;;;;;32.50;24.15;;;13.60;99.90;;;;;;5030075;28;20147;-72
2023/10/26 06:39:10;;;;;;;17.25;15.50;;;13.50;99.90;;;;;;5013443;28;20134;-72
2023/10/26 06:41:39;;;;;;;9.57;8.15;;;13.50;99.90;;;;;;4991352;28;20049;-72
2023/10/26 06:44:11;;;;;;;13.63;12.25;;;13.50;99.90;;;;;;5023011;28;20515;-72
2023/10/26 06:46:39;;;;;;;21.52;18.27;;;13.40;99.90;;;;;;5031833;28;20056;-73
2023/10/26 06:49:08;;;;;;;19.73;17.75;;;13.50;99.90;;;;;;4999598;28;20048;-72
2023/10/26 06:51:57;;;;;;;19.90;18.08;;;13.60;99.90;;;;;;4994946;28;20044;-73
2023/10/26 06:54:26;;;;;;;21.23;19.05;;;13.60;99.90;;;;;;4993413;28;20083;-72
2023/10/26 06:56:55;;;;;;;18.48;16.83;;;13.60;99.90;;;;;;5014181;28;20040;-72
2023/10/26 06:59:23;;;;;;;21.25;19.15;;;13.60;99.90;;;;;;5012439;28;20527;-72
2023/10/26 07:01:53;;;;;;;16.42;14.60;;;13.60;99.90;;;;;;5003154;28;22178;-72
2023/10/26 07:04:39;;;;;;;15.85;14.18;;;13.60;99.90;;;;;;5038487;28;20052;-72
2023/10/26 07:07:09;;;;;;;21.88;19.55;;;13.70;99.90;;;;;;5028296;28;20479;-72
2023/10/26 07:09:37;;;;;;;22.23;20.27;;;13.70;99.90;;;;;;5026818;28;20060;-72
2023/10/26 07:12:07;;;;;;;23.23;17.58;;;13.70;99.90;;;;;;4996553;28;20061;-73
2023/10/26 07:14:36;;;;;;;22.73;20.85;;;13.70;99.90;;;;;;5010455;28;20139;-72
2023/10/26 07:17:05;;;;;;;17.80;16.20;;;13.80;99.90;;;;;;5012116;28;20051;-73
2023/10/26 07:19:34;;;;;;;22.92;20.15;;;13.80;99.90;;;;;;5004951;28;22327;-72
2023/10/26 07:22:02;;;;;;;15.38;13.98;;;13.80;99.90;;;;;;5011635;28;20053;-73
2023/10/26 07:24:35;;;;;;;19.15;14.88;;;13.90;99.90;;;;;;5025072;28;20049;-72
2023/10/26 07:27:04;;;;;;;20.40;18.48;;;13.90;99.90;;;;;;4995918;28;20874;-73
2023/10/26 07:29:33;;;;;;;20.80;19.00;;;14.00;99.90;;;;;;5004469;28;20115;-72
2023/10/26 07:32:02;;;;;;;19.63;17.98;;;14.00;99.90;;;;;;4994456;28;20088;-74
2023/10/26 07:34:30;;;;;;;18.98;16.80;;;14.00;99.90;;;;;;5002690;28;20061;-74
2023/10/26 07:36:59;;;;;;;17.08;15.27;;;14.10;99.90;;;;;;5011945;28;20080;-72
2023/10/26 07:39:27;;;;;;;17.98;14.13;;;14.10;99.90;;;;;;5015294;28;20037;-74
2023/10/26 07:42:17;;;;;;;22.27;20.17;;;14.10;99.90;;;;;;5015524;28;20396;-72
2023/10/26 07:44:45;;;;;;;20.40;18.65;;;14.10;99.90;;;;;;5026581;28;20064;-72
2023/10/26 07:47:15;;;;;;;26.17;21.40;;;14.20;99.90;;;;;;4993978;28;20040;-72
2023/10/26 07:49:43;;;;;;;24.83;20.48;;;14.20;99.90;;;;;;4999515;28;20889;-72
2023/10/26 07:52:12;;;;;;;19.98;17.88;;;14.20;99.90;;;;;;5013604;28;20045;-73
2023/10/26 07:54:40;;;;;;;45.15;20.92;;;14.20;99.90;;;;;;4993409;28;20060;-73
2023/10/26 07:57:09;;;;;;;20.35;18.50;;;14.20;99.90;;;;;;4996521;28;20045;-72
2023/10/26 07:59:39;;;;;;;21.52;16.92;;;14.20;99.90;;;;;;5010610;28;20053;-72
2023/10/26 08:02:08;;;;;;;18.27;16.40;;;14.30;99.90;;;;;;5013783;28;22296;-73
2023/10/26 08:04:36;;;;;;;20.55;18.35;;;14.30;99.90;;;;;;5043264;28;20053;-73
2023/10/26 08:07:05;;;;;;;16.50;14.80;;;14.40;99.90;;;;;;5026126;28;20382;-73
2023/10/26 08:09:33;;;;;;;22.40;20.42;;;14.40;99.90;;;;;;5007585;28;20096;-73
2023/10/26 08:12:02;;;;;;;17.65;15.93;;;14.40;99.90;;;;;;4998852;28;20053;-73
2023/10/26 08:14:31;;;;;;;13.65;9.75;;;14.40;99.90;;;;;;4997736;28;20053;-72
2023/10/26 08:17:21;;;;;;;13.30;11.85;;;14.40;99.90;;;;;;5007055;28;20052;-73
2023/10/26 08:19:53;;;;;;;19.23;17.23;;;14.40;99.90;;;;;;5007645;28;20057;-73
2023/10/26 08:22:22;;;;;;;16.52;11.93;;;14.40;99.90;;;;;;5012909;28;20653;-73
2023/10/26 08:25:08;;;;;;;16.50;13.45;;;14.30;99.90;;;;;;4998719;28;22295;-74
2023/10/26 08:27:37;;;;;;;24.25;14.00;;;14.30;99.90;;;;;;5026688;28;20199;-74
2023/10/26 08:30:07;;;;;;;16.60;14.63;;;14.40;99.90;;;;;;5010639;28;20740;-73
2023/10/26 08:32:37;;;;;;;14.85;13.45;;;14.40;99.90;;;;;;4993982;28;20224;-73
2023/10/26 08:35:06;;;;;;;22.75;20.60;;;14.50;99.90;;;;;;4994227;28;20189;-73
2023/10/26 08:37:35;;;;;;;13.18;11.95;;;14.50;99.90;;;;;;5006642;28;20049;-72
2023/10/26 08:40:04;;;;;;;48.10;18.45;;;14.50;99.90;;;;;;4997332;28;20048;-74
2023/10/26 08:42:33;;;;;;;10.05;7.60;;;14.50;99.90;;;;;;4996425;28;20047;-73
2023/10/26 08:45:02;;;;;;;19.23;17.40;;;14.50;99.90;;;;;;4998094;28;20053;-73
2023/10/26 08:47:32;;;;;;;15.93;14.43;;;14.50;99.90;;;;;;5029671;28;20052;-72
2023/10/26 08:50:04;;;;;;;14.02;12.43;;;14.60;99.90;;;;;;4996831;28;20052;-73
2023/10/26 08:52:44;;;;;;;;;;;14.60;99.90;;;;;;4995045;28;20806;-73
2023/10/26 08:55:13;;;;;;;27.25;14.80;;;14.60;99.90;;;;;;4996498;28;19929;-73
2023/10/26 08:57:48;;;;;;;17.58;15.65;;;14.60;99.90;;;;;;4993991;28;20099;-74
2023/10/26 09:00:18;;;;;;;14.90;13.15;;;14.60;99.90;;;;;;5002207;28;22121;-73
2023/10/26 09:02:49;;;;;;;17.25;13.88;;;14.70;99.90;;;;;;4994052;28;20081;-73
2023/10/26 09:05:20;;;;;;;22.98;11.52;;;14.60;99.90;;;;;;5034694;28;20677;-73
2023/10/26 09:07:48;;;;;;;39.85;28.77;;;14.60;99.90;;;;;;5013898;28;20071;-73
2023/10/26 09:10:28;;;;;;;18.60;16.67;;;14.60;99.90;;;;;;5010187;28;20054;-72
2023/10/26 09:13:02;;;;;;;28.33;19.83;;;14.50;99.90;;;;;;5013735;28;20049;-74
2023/10/26 09:15:31;;;;;;;15.82;14.15;;;14.60;99.90;;;;;;5013919;28;20056;-73
2023/10/26 09:18:09;;;;;;;24.55;19.80;;;14.80;99.90;;;;;;4998962;28;20523;-73
2023/10/26 09:20:39;;;;;;;13.98;12.38;;;14.90;99.90;;;;;;5010833;28;20698;-73
2023/10/26 09:23:08;;;;;;;15.57;9.63;;;14.90;99.90;;;;;;5016327;28;20053;-73
2023/10/26 09:25:37;;;;;;;14.27;11.88;;;15.00;99.90;;;;;;5010599;28;20057;-73
2023/10/26 09:28:05;;;;;;;15.60;13.57;;;15.00;99.90;;;;;;5016908;28;20045;-73
2023/10/26 09:30:36;;;;;;;36.25;21.05;;;15.20;99.90;;;;;;5014366;28;20678;-73
2023/10/26 09:33:05;;;;;;;14.32;11.98;;;15.20;99.90;;;;;;5001175;28;20037;-73
2023/10/26 09:35:34;;;;;;;14.68;12.85;;;15.20;99.90;;;;;;4998721;28;20731;-73
2023/10/26 09:38:04;;;;;;;13.85;8.40;;;15.10;99.90;;;;;;5001081;28;20558;-73
2023/10/26 09:40:33;;;;;;;19.23;17.42;;;14.90;99.90;;;;;;5011738;28;20504;-73
2023/10/26 09:43:02;;;;;;;13.60;10.77;;;15.10;99.90;;;;;;5000135;28;20340;-73
2023/10/26 09:45:31;;;;;;;20.42;17.13;;;15.30;99.90;;;;;;4999220;28;20075;-74
2023/10/26 09:48:02;;;;;;;21.75;19.25;;;15.30;99.90;;;;;;4999710;28;20094;-75
2023/10/26 09:50:37;;;;;;;17.50;15.70;;;15.40;99.90;;;;;;4995692;28;20716;-73
2023/10/26 09:53:08;;;;;;;18.05;15.63;;;15.50;99.90;;;;;;5015801;28;20045;-73
2023/10/26 09:55:38;;;;;;;17.07;15.23;;;15.60;99.90;;;;;;5000765;28;20051;-73
2023/10/26 09:58:08;;;;;;;16.60;14.77;;;15.90;99.90;;;;;;5023232;28;20060;-73
2023/10/26 10:00:37;;;;;;;14.68;11.80;;;16.10;99.90;;;;;;4996826;28;20790;-74
2023/10/26 10:03:12;;;;;;;14.30;10.82;;;16.10;99.90;;;;;;5013197;28;20041;-74
2023/10/26 10:05:43;;;;;;;13.98;8.93;;;16.00;99.90;;;;;;4990882;28;20056;-73
2023/10/26 10:08:14;;;;;;;15.55;10.73;;;15.80;99.90;;;;;;5028946;28;20049;-74
2023/10/26 10:11:16;;;;;;;18.25;11.50;;;15.90;99.90;;;;;;5011603;28;20435;-73
2023/10/26 10:13:45;;;;;;;13.60;10.75;;;16.00;99.90;;;;;;4993665;28;20064;-73
2023/10/26 10:16:53;;;;;;;14.88;10.00;;;16.00;99.90;;;;;;4998408;28;20205;-73
2023/10/26 10:19:22;;;;;;;18.52;13.32;;;15.90;99.90;;;;;;4998453;28;20582;-73
2023/10/26 10:21:52;;;;;;;13.02;9.18;;;16.10;99.90;;;;;;4996671;28;20048;-72
2023/10/26 10:24:54;;;;;;;16.17;10.82;;;16.20;99.90;;;;;;5030183;28;20813;-73
2023/10/26 10:27:22;;;;;;;12.93;8.57;;;16.20;99.90;;;;;;4999481;28;20045;-73
2023/10/26 10:29:51;;;;;;;15.20;10.02;;;16.30;99.90;;;;;;5025135;28;20057;-73
2023/10/26 10:32:56;;;;;;;19.40;12.13;;;16.40;99.90;;;;;;5012341;28;20046;-73
2023/10/26 10:35:37;;;;;;;11.93;7.47;;;16.30;99.90;;;;;;5013274;28;20054;-72
2023/10/26 10:38:20;;;;;;;15.48;9.82;;;16.20;99.90;;;;;;5018954;28;20168;-72
2023/10/26 10:41:14;;;;;;;12.85;9.40;;;16.20;99.90;;;;;;5014352;28;20050;-72
2023/10/26 10:43:44;;;;;;;23.05;20.10;;;16.10;99.90;;;;;;5000812;28;20895;-73
2023/10/26 10:46:18;;;;;;;12.85;11.50;;;16.10;99.90;;;;;;5014966;28;20075;-73
2023/10/26 10:48:58;;;;;;;12.68;8.20;;;16.10;99.90;;;;;;5010134;28;20060;-73
2023/10/26 10:51:32;;;;;;;13.98;10.88;;;16.10;99.90;;;;;;5014799;28;20191;-73
2023/10/26 10:54:02;;;;;;;14.20;10.70;;;16.20;99.90;;;;;;5031733;28;20575;-74
2023/10/26 10:56:48;;;;;;;18.23;13.00;;;16.30;99.90;;;;;;5009882;28;20057;-74
2023/10/26 10:59:18;;;;;;;13.27;11.98;;;16.40;99.90;;;;;;5005048;28;20546;-73
2023/10/26 11:01:47;;;;;;;12.15;10.80;;;16.50;99.90;;;;;;4998465;28;20054;-73
2023/10/26 11:04:15;;;;;;;13.80;11.05;;;16.50;99.90;;;;;;5012571;28;20054;-74
2023/10/26 11:06:49;;;;;;;10.95;9.52;;;16.60;99.90;;;;;;5001168;28;20363;-73
2023/10/26 11:09:37;;;;;;;9.05;7.20;;;16.60;99.90;;;;;;4995721;28;20508;-73
2023/10/26 11:12:12;;;;;;;10.73;9.77;;;16.60;99.90;;;;;;5014682;28;20068;-73
2023/10/26 11:14:49;;;;;;;12.75;10.75;;;16.70;99.90;;;;;;5017497;28;20732;-75
2023/10/26 11:17:18;;;;;;;9.63;7.18;;;16.70;99.90;;;;;;5006541;28;20146;-72
2023/10/26 11:19:47;;;;;;;12.98;10.35;;;16.70;99.90;;;;;;5014007;28;20631;-72
2023/10/26 11:22:17;;;;;;;10.63;7.05;;;16.70;99.90;;;;;;4998000;28;22193;-73
2023/10/26 11:24:47;;;;;;;8.48;7.68;;;16.70;99.90;;;;;;4998156;28;20643;-72
2023/10/26 11:27:17;;;;;;;11.85;8.50;;;16.70;99.90;;;;;;5012770;28;20059;-72
2023/10/26 11:30:01;;;;;;;8.38;6.75;;;16.60;99.90;;;;;;4998891;28;20075;-72
2023/10/26 11:32:30;;;;;;;9.10;8.27;;;16.60;99.90;;;;;;5002731;28;20412;-72
2023/10/26 11:35:06;;;;;;;8.23;7.38;;;16.60;99.90;;;;;;5012904;28;20091;-73
2023/10/26 11:37:35;;;;;;;8.85;7.93;;;16.80;99.90;;;;;;5008972;28;22316;-72
2023/10/26 11:40:05;;;;;;;6.90;6.18;;;16.70;99.90;;;;;;5020955;28;20072;-72
2023/10/26 11:42:49;;;;;;;9.52;7.22;;;16.70;99.90;;;;;;4998973;28;20053;-72
2023/10/26 11:45:19;;;;;;;10.10;9.23;;;16.80;99.90;;;;;;5021813;28;20056;-79
2023/10/26 11:47:50;;;;;;;11.30;9.48;;;17.00;99.90;;;;;;5018976;28;20049;-73
2023/10/26 11:50:20;;;;;;;8.18;5.35;;;17.00;99.90;;;;;;5015842;28;20053;-75
2023/10/26 11:52:50;;;;;;;12.15;9.43;;;16.90;99.90;;;;;;5016142;28;20048;-75
2023/10/26 11:55:19;;;;;;;9.95;7.60;;;16.90;99.90;;;;;;4993712;28;20531;-72
2023/10/26 11:57:50;;;;;;;6.45;5.70;;;16.90;99.90;;;;;;5005459;28;20099;-72
2023/10/26 12:00:20;;;;;;;7.35;5.90;;;16.90;99.90;;;;;;5011898;28;20056;-72
2023/10/26 12:02:48;;;;;;;8.40;7.18;;;16.90;99.90;;;;;;5015452;28;20084;-74
2023/10/26 12:05:18;;;;;;;7.60;6.47;;;16.70;99.90;;;;;;4999817;28;20071;-73
2023/10/26 12:07:48;;;;;;;7.93;7.13;;;16.70;99.90;;;;;;5017354;28;20526;-73
2023/10/26 12:10:18;;;;;;;6.38;5.75;;;16.70;99.90;;;;;;5015953;28;22191;-73
2023/10/26 12:12:48;;;;;;;9.05;8.27;;;16.80;99.90;;;;;;5000982;28;20044;-73
2023/10/26 12:15:20;;;;;;;7.32;5.47;;;16.90;99.90;;;;;;4993919;28;20579;-73
2023/10/26 12:17:49;;;;;;;10.80;8.07;;;16.90;99.90;;;;;;4999591;28;20054;-76
2023/10/26 12:20:18;;;;;;;10.80;7.95;;;16.80;99.90;;;;;;4998228;28;21885;-73
2023/10/26 12:22:47;;;;;;;6.72;5.50;;;16.70;99.30;;;;;;5013649;28;20063;-73
2023/10/26 12:25:15;;;;;;;9.65;7.25;;;16.70;99.90;;;;;;5012834;28;20053;-74
2023/10/26 12:27:44;;;;;;;7.57;5.93;;;16.80;99.90;;;;;;5023119;28;20072;-73
2023/10/26 12:30:37;;;;;;;7.00;6.25;;;17.10;99.90;;;;;;5023141;28;20042;-74
2023/10/26 12:33:06;;;;;;;9.45;8.52;;;17.10;99.90;;;;;;5015254;28;20061;-80
2023/10/26 12:35:34;;;;;;;7.60;6.55;;;17.10;99.90;;;;;;5007068;28;20146;-76
2023/10/26 12:38:03;;;;;;;7.75;6.45;;;17.10;99.90;;;;;;5015331;28;20056;-75
2023/10/26 12:40:32;;;;;;;10.45;7.35;;;17.10;99.90;;;;;;4994008;28;20167;-72
2023/10/26 12:43:00;;;;;;;9.68;6.72;;;17.20;99.90;;;;;;5014632;28;22190;-73
2023/10/26 12:45:29;;;;;;;6.88;5.28;;;17.30;99.90;;;;;;4998300;28;20427;-72
2023/10/26 12:47:59;;;;;;;9.80;7.43;;;17.20;99.90;;;;;;5002085;28;20183;-72